Latest Weather Observations for Brisbane

IDQ60801

Issued at 1:32 pm EST Sunday 26 March 2017 (issued every 30 minutes, with the page automatically refreshed every 10 minutes)

About weather observations | Map of weather stations | Latest weather observations for QLD | Other Formats
Station Details ID: 040913 Name: BRISBANE Lat: -27.48 Lon: 153.04 Height: 8.13 m
Data from the previous 72 hours. | See also: Recent months at Brisbane
Date/Time
EST
Temp
°C
App
Temp
°C
Dew
Point
°C
Rel
Hum
%
Delta-T
°C
Wind Press
QNH
hPa
Press
MSL
hPa
Rain since
9am
mm
Dir  Spd
km/h
Gust
km/h
Spd
kts
Gust
kts
26/01:30pm 30.2 32.7 20.2 55 6.6 ENE 7 13 4 7 1012.7 1012.7 0.0
26/01:00pm 29.4 31.6 20.3 58 6.0 ENE 9 15 5 8 1012.9 1012.9 0.0
26/12:30pm 29.7 32.5 19.7 55 6.5 N 4 9 2 5 1013.5 1013.5 0.0
26/12:00pm 29.6 33.0 20.2 57 6.2 SSW 2 6 1 3 1014.2 1014.2 0.0
26/11:30am 28.3 31.0 19.5 59 5.7 S 4 9 2 5 1014.8 1014.8 0.0
26/11:00am 27.9 30.1 19.1 58 5.7 SSW 6 11 3 6 1015.3 1015.3 0.0
26/10:30am 28.0 31.7 20.8 65 4.8 SW 2 9 1 5 1015.4 1015.4 0.0
26/10:00am 26.6 28.9 19.5 65 4.6 W 6 9 3 5 1015.6 1015.6 0.0
26/09:30am 26.5 30.1 20.6 70 3.9 N 2 7 1 4 1015.9 1015.9 0.0
26/09:00am 26.3 29.7 20.2 69 4.0 SSW 2 4 1 2 1016.0 1016.0 0.2
26/08:30am 25.1 28.1 20.1 74 3.2 W 4 6 2 3 1015.9 1015.9 0.2
26/08:00am 23.6 26.0 19.7 79 2.5 W 6 7 3 4 1015.9 1015.9 0.2
26/07:30am 22.7 26.0 20.0 85 1.7 WSW 2 7 1 4 1015.7 1015.7 0.2
26/07:00am 21.9 25.1 19.8 88 1.3 SW 2 6 1 3 1015.4 1015.4 0.2
26/06:30am 21.3 24.5 19.8 91 1.0 SW 2 4 1 2 1015.1 1015.1 0.2
26/06:00am 21.0 24.1 19.5 91 1.0 W 2 6 1 3 1014.6 1014.6 0.2
26/05:30am 20.5 23.8 19.0 91 0.9 CALM 0 4 0 2 1014.5 1014.5 0.2
26/05:00am 20.9 24.2 19.2 90 1.1 CALM 0 2 0 1 1013.9 1013.9 0.2
26/04:30am 20.9 24.2 19.2 90 1.1 CALM 0 0 0 0 1013.7 1013.7 0.2
26/04:00am 21.1 24.2 19.6 91 1.0 WSW 2 6 1 3 1013.5 1013.5 0.2
26/03:30am 20.6 23.9 19.1 91 0.9 CALM 0 0 0 0 1013.6 1013.6 0.2
26/03:00am 20.7 24.0 19.0 90 1.1 CALM 0 0 0 0 1013.5 1013.5 0.2
26/02:30am 20.9 24.2 19.0 89 1.2 CALM 0 0 0 0 1013.8 1013.8 0.2
26/02:00am 21.1 24.4 19.0 88 1.3 CALM 0 0 0 0 1014.0 1014.0 0.2
26/01:30am 21.4 24.6 18.8 85 1.6 CALM 0 0 0 0 1014.5 1014.5 0.2
26/01:00am 21.7 24.9 18.9 84 1.8 CALM 0 0 0 0 1014.8 1014.8 0.2
26/12:30am 22.3 25.5 18.9 81 2.1 CALM 0 4 0 2 1015.1 1015.1 0.2
26/12:00am 23.0 26.0 19.2 79 2.4 ESE 2 4 1 2 1015.3 1015.3 0.2
 
Date/Time
EST
Temp
°C
App
Temp
°C
Dew
Point
°C
Rel
Hum
%
Delta-T
°C
Wind Press
QNH
hPa
Press
MSL
hPa
Rain since
9am
mm
Dir  Spd
km/h
Gust
km/h
Spd
kts
Gust
kts
25/11:30pm 23.5 26.9 19.4 78 2.6 CALM 0 0 0 0 1015.8 1015.8 0.2
25/11:00pm 23.6 26.7 19.5 78 2.6 ESE 2 4 1 2 1016.1 1016.1 0.2
25/10:30pm 23.8 27.4 19.7 78 2.6 CALM 0 0 0 0 1016.4 1016.4 0.2
25/10:00pm 23.8 27.0 19.7 78 2.6 ESE 2 6 1 3 1016.5 1016.5 0.2
25/09:30pm 23.8 26.5 19.5 77 2.8 E 4 6 2 3 1016.5 1016.5 0.2
25/09:00pm 23.6 26.7 19.5 78 2.6 SE 2 4 1 2 1016.6 1016.6 0.2
25/08:30pm 23.4 26.4 19.3 78 2.6 E 2 6 1 3 1016.3 1016.3 0.2
25/08:00pm 23.6 26.0 18.9 75 3.0 ESE 4 6 2 3 1016.2 1016.2 0.2
25/07:30pm 23.8 26.2 18.9 74 3.1 E 4 6 2 3 1015.9 1015.9 0.2
25/07:00pm 24.1 26.5 18.7 72 3.4 ESE 4 9 2 5 1015.6 1015.6 0.2
25/06:30pm 24.3 26.6 18.5 70 3.7 E 4 7 2 4 1015.2 1015.2 0.2
25/06:00pm 24.8 26.6 18.7 69 3.9 E 7 13 4 7 1014.7 1014.7 0.2
25/05:30pm 25.4 26.9 18.8 67 4.2 E 9 17 5 9 1014.5 1014.5 0.2
25/05:00pm 25.9 28.0 19.3 67 4.2 E 7 13 4 7 1014.4 1014.4 0.2
25/04:30pm 26.6 28.5 19.7 66 4.5 E 9 17 5 9 1014.0 1014.0 0.2
25/04:00pm 27.3 28.7 19.6 62 5.0 E 11 19 6 10 1013.9 1013.9 0.2
25/03:30pm 26.6 28.4 19.5 65 4.6 ESE 9 13 5 7 1014.0 1014.0 0.2
25/03:00pm 26.8 28.3 19.7 65 4.6 E 11 19 6 10 1014.2 1014.2 0.0
25/02:30pm 27.6 29.9 20.7 66 4.6 E 9 17 5 9 1014.3 1014.3 0.0
25/02:00pm 26.8 28.5 20.2 67 4.3 ESE 11 17 6 9 1014.3 1014.3 0.0
25/01:30pm 26.8 28.0 19.9 66 4.5 ESE 13 19 7 10 1014.5 1014.5 0.0
25/01:00pm 26.8 28.5 20.2 67 4.3 E 11 22 6 12 1014.9 1014.9 0.0
25/12:30pm 27.4 29.3 19.7 63 5.0 ESE 9 15 5 8 1015.2 1015.2 0.0
25/12:00pm 26.9 29.1 19.5 64 4.8 SSE 7 15 4 8 1015.7 1015.7 0.0
25/11:30am 26.6 27.6 19.5 65 4.6 SE 13 24 7 13 1016.2 1016.2 0.0
25/11:00am 27.4 29.3 19.7 63 5.0 ESE 9 17 5 9 1016.5 1016.5 0.0
25/10:30am 26.5 28.7 19.6 66 4.5 ESE 7 13 4 7 1016.8 1016.8 0.0
25/10:00am 26.9 29.1 19.5 64 4.8 SE 7 13 4 7 1016.9 1016.9 0.0
25/09:30am 27.6 29.8 20.4 65 4.7 SE 9 15 5 8 1016.8 1016.8 0.0
25/09:00am 25.3 27.3 19.2 69 3.9 SSE 7 13 4 7 1017.0 1017.0 10.0
25/08:30am 25.3 26.8 19.0 68 4.0 SSE 9 20 5 11 1016.8 1016.8 10.0
25/08:00am 23.8 26.0 19.1 75 3.0 S 6 13 3 7 1016.6 1016.6 10.0
25/07:30am 23.0 25.5 19.0 78 2.5 SW 4 11 2 6 1016.4 1016.4 10.0
25/07:00am 21.9 23.9 18.7 82 2.0 SW 6 9 3 5 1016.0 1016.0 10.0
25/06:30am 21.6 23.5 18.6 83 1.9 SW 6 9 3 5 1015.9 1015.9 10.0
25/06:00am 21.6 23.9 18.6 83 1.9 WSW 4 7 2 4 1015.4 1015.4 10.0
25/05:30am 21.7 24.1 18.7 83 1.9 SW 4 6 2 3 1015.2 1015.2 10.0
25/05:00am 21.8 24.5 18.6 82 2.0 SW 2 6 1 3 1014.9 1014.9 10.0
25/04:30am 21.8 24.1 18.6 82 2.0 SW 4 7 2 4 1014.9 1014.9 10.0
25/04:00am 21.9 24.2 18.5 81 2.1 SW 4 6 2 3 1014.7 1014.7 10.0
25/03:30am 22.0 24.3 18.6 81 2.1 SW 4 7 2 4 1014.8 1014.8 10.0
25/03:00am 22.1 24.8 18.7 81 2.1 SW 2 6 1 3 1014.8 1014.8 10.0
25/02:30am 22.1 24.5 18.7 81 2.1 WSW 4 9 2 5 1015.0 1015.0 10.0
25/02:00am 22.2 24.6 18.8 81 2.1 SW 4 7 2 4 1015.3 1015.3 10.0
25/01:30am 22.3 25.1 18.9 81 2.1 WSW 2 6 1 3 1015.7 1015.7 10.0
25/01:00am 22.7 25.1 18.7 78 2.5 SW 4 9 2 5 1015.8 1015.8 10.0
25/12:30am 23.0 25.3 18.5 76 2.8 SW 4 6 2 3 1016.3 1016.3 10.0
25/12:00am 23.3 25.1 18.2 73 3.2 SSW 6 9 3 5 1016.3 1016.3 10.0
 
Date/Time
EST
Temp
°C
App
Temp
°C
Dew
Point
°C
Rel
Hum
%
Delta-T
°C
Wind Press
QNH
hPa
Press
MSL
hPa
Rain since
9am
mm
Dir  Spd
km/h
Gust
km/h
Spd
kts
Gust
kts
24/11:30pm 23.4 25.7 18.5 74 3.1 S 4 9 2 5 1016.5 1016.5 10.0
24/11:00pm 23.4 25.8 18.7 75 3.0 SSW 4 7 2 4 1016.5 1016.5 10.0
24/10:30pm 23.5 25.6 19.0 76 2.9 SSE 6 11 3 6 1016.5 1016.5 10.0
24/10:00pm 23.4 25.3 18.9 76 2.9 SSE 7 11 4 6 1016.6 1016.6 10.0
24/09:30pm 23.5 25.4 19.0 76 2.9 SSE 7 19 4 10 1016.5 1016.5 10.0
24/09:00pm 23.8 25.4 19.1 75 3.0 SE 9 20 5 11 1016.5 1016.5 10.0
24/08:30pm 23.8 24.7 19.3 76 2.9 SE 13 22 7 12 1016.5 1016.5 10.0
24/08:00pm 23.9 25.9 20.0 79 2.5 SE 9 20 5 11 1016.3 1016.3 10.0
24/07:30pm 24.1 26.2 20.2 79 2.5 SE 9 19 5 10 1015.8 1015.8 10.0
24/07:00pm 24.4 26.7 20.7 80 2.4 ESE 9 22 5 12 1015.3 1015.3 10.0
24/06:30pm 24.3 28.1 21.6 85 1.8 ESE 4 7 2 4 1015.2 1015.2 10.0
24/06:00pm 24.3 28.5 21.8 86 1.7 ENE 2 7 1 4 1014.8 1014.8 10.0
24/05:30pm 24.4 27.9 21.9 86 1.7 E 6 9 3 5 1014.4 1014.4 10.0
24/05:00pm 24.6 27.3 22.1 86 1.7 ESE 11 22 6 12 1014.2 1014.2 10.0
24/04:30pm 24.9 28.9 22.8 88 1.4 E 6 11 3 6 1013.9 1013.9 10.0
24/04:00pm 24.6 28.6 22.7 89 1.3 E 6 9 3 5 1013.7 1013.7 10.0
24/03:30pm 24.2 27.8 22.3 89 1.3 E 7 13 4 7 1013.6 1013.6 10.0
24/03:00pm 24.1 27.0 22.5 91 1.1 E 11 20 6 11 1013.5 1013.5 9.8
24/02:30pm 23.6 26.6 21.9 90 1.1 SE 9 20 5 11 1013.6 1013.6 9.2
24/02:00pm 27.4 30.1 21.4 70 4.0 ESE 9 17 5 9 1013.5 1013.5 0.0
24/01:30pm 27.9 30.4 21.7 69 4.2 E 11 17 6 9 1013.6 1013.6 0.0
24/01:00pm 28.1 30.9 21.6 68 4.3 E 9 19 5 10 1013.9 1013.9 0.0
24/12:30pm 28.6 31.2 21.9 67 4.5 ENE 11 19 6 10 1014.4 1014.4 0.0
24/12:00pm 28.5 31.1 22.7 71 3.9 E 13 22 7 12 1014.9 1014.9 0.0
24/11:30am 27.9 31.4 21.9 70 4.0 ENE 6 9 3 5 1015.3 1015.3 0.0
24/11:00am 27.8 31.6 21.6 69 4.1 ENE 4 9 2 5 1015.7 1015.7 0.0
24/10:30am 27.7 31.4 22.2 72 3.7 NE 6 9 3 5 1015.9 1015.9 0.0
24/10:00am 27.7 31.5 21.7 70 4.0 ESE 4 9 2 5 1016.1 1016.1 0.0
24/09:30am 26.4 30.5 21.6 75 3.2 SW 2 6 1 3 1016.2 1016.2 0.0
24/09:00am 26.5 31.1 21.7 75 3.2 CALM 0 0 0 0 1016.3 1016.3 0.8
24/08:30am 26.1 30.1 21.3 75 3.2 SW 2 4 1 2 1016.0 1016.0 0.8
24/08:00am 25.1 28.7 21.2 79 2.6 W 4 9 2 5 1015.9 1015.9 0.8
24/07:30am 23.9 27.6 21.4 86 1.6 WSW 4 9 2 5 1016.0 1016.0 0.8
24/07:00am 23.1 27.0 21.2 89 1.2 SW 2 7 1 4 1015.7 1015.7 0.8
24/06:30am 22.5 26.2 20.8 90 1.1 SW 2 4 1 2 1015.1 1015.1 0.8
24/06:00am 22.5 26.7 21.0 91 1.0 CALM 0 6 0 3 1014.8 1014.8 0.8
24/05:30am 22.6 26.4 20.9 90 1.1 SW 2 6 1 3 1014.5 1014.5 0.8
24/05:00am 22.6 26.1 21.1 91 1.0 SW 4 7 2 4 1014.2 1014.2 0.8
24/04:30am 22.6 26.5 21.2 92 0.9 SW 2 6 1 3 1014.1 1014.1 0.8
24/04:00am 22.6 26.2 21.2 92 0.9 WSW 4 7 2 4 1013.9 1013.9 0.8
24/03:30am 22.6 26.5 21.2 92 0.9 W 2 4 1 2 1013.9 1013.9 0.8
24/03:00am 22.8 26.4 21.3 91 1.0 SW 4 7 2 4 1014.0 1014.0 0.8
24/02:30am 23.1 26.8 21.5 91 1.1 WSW 4 7 2 4 1014.4 1014.4 0.8
24/02:00am 23.6 27.9 21.9 90 1.1 SSW 2 7 1 4 1014.6 1014.6 0.8
24/01:30am 24.1 28.9 22.2 89 1.3 CALM 0 4 0 2 1014.9 1014.9 0.8
24/01:00am 24.4 28.8 22.1 87 1.5 NNE 2 4 1 2 1015.2 1015.2 0.2
24/12:30am 24.7 29.6 22.4 87 1.5 CALM 0 0 0 0 1015.2 1015.2 0.2
24/12:00am 25.1 30.0 22.4 85 1.8 CALM 0 0 0 0 1015.3 1015.3 0.0
 
Date/Time
EST
Temp
°C
App
Temp
°C
Dew
Point
°C
Rel
Hum
%
Delta-T
°C
Wind Press
QNH
hPa
Press
MSL
hPa
Rain since
9am
mm
Dir  Spd
km/h
Gust
km/h
Spd
kts
Gust
kts
23/11:30pm 25.1 29.9 22.2 84 1.9 CALM 0 4 0 2 1015.4 1015.4 0.0
23/11:00pm 25.4 29.9 22.3 83 2.1 SE 2 6 1 3 1015.6 1015.6 0.0
23/10:30pm 25.7 30.5 22.8 84 2.0 ESE 2 4 1 2 1015.8 1015.8 0.0
23/10:00pm 25.7 30.8 22.6 83 2.1 CALM 0 6 0 3 1016.0 1016.0 0.0
23/09:30pm 25.7 30.3 22.4 82 2.2 NE 2 6 1 3 1016.1 1016.1 0.0
23/09:00pm 25.7 29.7 22.0 80 2.5 NE 4 4 2 2 1016.0 1016.0 0.0
23/08:30pm 25.8 29.6 21.7 78 2.7 ENE 4 9 2 5 1016.0 1016.0 0.0
23/08:00pm 25.9 30.1 22.4 81 2.4 E 4 6 2 3 1015.9 1015.9 0.0
23/07:30pm 25.9 29.6 22.2 80 2.5 E 6 9 3 5 1015.7 1015.7 0.0
23/07:00pm 26.0 29.5 22.1 79 2.6 E 7 13 4 7 1015.3 1015.3 0.0
23/06:30pm 26.4 29.4 21.2 73 3.4 E 7 11 4 6 1014.9 1014.9 0.0
23/06:00pm 26.6 29.6 20.9 71 3.8 E 6 7 3 4 1014.6 1014.6 0.0
23/05:30pm 26.7 29.8 21.0 71 3.8 ENE 6 11 3 6 1014.5 1014.5 0.0
23/05:00pm 26.7 29.5 21.5 73 3.5 NE 9 17 5 9 1014.4 1014.4 0.0
23/04:30pm 27.5 29.9 20.8 67 4.4 ENE 9 17 5 9 1014.0 1014.0 0.0
23/04:00pm 28.1 30.5 20.1 62 5.2 ENE 7 11 4 6 1013.8 1013.8 0.0
23/03:30pm 28.4 30.9 19.9 60 5.6 ENE 6 9 3 5 1013.7 1013.7 0.0
23/03:00pm 29.0 31.7 20.2 59 5.8 ENE 6 9 3 5 1013.7 1013.7 0.0
23/02:30pm 28.6 31.1 19.8 59 5.7 ENE 6 9 3 5 1013.9 1013.9 0.0
23/02:00pm 29.0 31.5 19.9 58 6.0 NE 6 11 3 6 1013.9 1013.9 0.0

Other Formats:

Comma delimited format used in spreadsheet applications
http://www.bom.gov.au/fwo/IDQ60801/IDQ60801.94576.axf

JavaScript Object Notation format (JSON) in row-major order
http://www.bom.gov.au/fwo/IDQ60801/IDQ60801.94576.json